createdAt,value
2022-10-22T00:01:57.886Z,100.00
2022-10-22T00:04:25.526Z,100.00
2022-10-22T00:06:53.084Z,100.00
2022-10-22T00:09:20.722Z,100.00
2022-10-22T00:11:48.285Z,100.00
2022-10-22T00:14:16.375Z,100.00
2022-10-22T00:16:43.852Z,100.00
2022-10-22T00:19:13.373Z,100.00
2022-10-22T00:21:40.972Z,100.00
2022-10-22T00:24:08.459Z,100.00
2022-10-22T00:26:35.939Z,100.00
2022-10-22T00:29:03.312Z,100.00
2022-10-22T00:31:31.026Z,100.00
2022-10-22T00:33:58.394Z,100.00
2022-10-22T00:36:25.857Z,100.00
2022-10-22T00:38:53.354Z,100.00
2022-10-22T00:41:20.824Z,100.00
2022-10-22T00:43:58.987Z,100.00
2022-10-22T00:46:26.944Z,100.00
2022-10-22T00:48:55.508Z,100.00
2022-10-22T00:51:25.752Z,100.00
2022-10-22T00:53:56.237Z,100.00
2022-10-22T00:56:24.918Z,100.00
2022-10-22T00:59:00.230Z,100.00
2022-10-22T01:01:31.441Z,100.00
2022-10-22T01:03:59.494Z,100.00
2022-10-22T01:06:34.400Z,100.00
2022-10-22T01:09:37.892Z,100.00
2022-10-22T01:12:46.524Z,100.00
2022-10-22T01:15:53.850Z,100.00
2022-10-22T01:18:32.975Z,100.00
2022-10-22T01:21:18.571Z,100.00
2022-10-22T01:24:11.616Z,100.00
2022-10-22T01:26:54.702Z,100.00
2022-10-22T01:29:27.940Z,100.00
2022-10-22T01:31:59.643Z,100.00
2022-10-22T01:34:28.901Z,100.00
2022-10-22T01:36:57.098Z,100.00
2022-10-22T01:39:25.937Z,100.00
2022-10-22T01:41:56.397Z,100.00
2022-10-22T01:44:29.786Z,100.00
2022-10-22T01:47:22.328Z,100.00
2022-10-22T01:50:09.470Z,100.00
2022-10-22T01:53:23.272Z,100.00
2022-10-22T01:56:14.874Z,100.00
2022-10-22T01:58:44.876Z,100.00
2022-10-22T02:01:21.954Z,100.00
2022-10-22T02:04:10.919Z,100.00
2022-10-22T02:06:39.486Z,100.00
2022-10-22T02:09:07.862Z,100.00
2022-10-22T02:11:35.409Z,100.00
2022-10-22T02:14:04.333Z,100.00
2022-10-22T02:16:42.606Z,100.00
2022-10-22T02:19:27.367Z,100.00
2022-10-22T02:21:55.100Z,100.00
2022-10-22T02:24:22.933Z,100.00
2022-10-22T02:27:25.849Z,100.00
2022-10-22T02:32:50.302Z,100.00
2022-10-22T02:35:22.829Z,100.00
2022-10-22T02:37:50.777Z,100.00
2022-10-22T02:40:18.512Z,100.00
2022-10-22T02:42:48.385Z,100.00
2022-10-22T02:45:16.583Z,100.00
2022-10-22T02:47:44.068Z,100.00
2022-10-22T02:50:11.545Z,100.00
2022-10-22T02:52:39.504Z,100.00
2022-10-22T02:55:07.831Z,100.00
2022-10-22T02:57:35.316Z,100.00
2022-10-22T03:00:02.681Z,100.00
2022-10-22T03:02:30.285Z,100.00
2022-10-22T03:04:58.267Z,100.00
2022-10-22T03:07:25.716Z,100.00
2022-10-22T03:09:53.438Z,100.00
2022-10-22T03:12:21.049Z,100.00
2022-10-22T03:14:48.521Z,100.00
2022-10-22T03:17:16.124Z,100.00
2022-10-22T03:19:43.491Z,100.00
2022-10-22T03:22:19.148Z,100.00
2022-10-22T03:24:48.897Z,100.00
2022-10-22T03:27:18.896Z,100.00
2022-10-22T03:29:47.218Z,100.00
2022-10-22T03:32:14.578Z,100.00
2022-10-22T03:34:41.967Z,100.00
2022-10-22T03:37:13.512Z,100.00
2022-10-22T03:39:40.858Z,100.00
2022-10-22T03:42:08.703Z,100.00
2022-10-22T03:44:37.619Z,100.00
2022-10-22T03:47:05.465Z,100.00
2022-10-22T03:49:32.961Z,100.00
2022-10-22T03:52:11.954Z,100.00
2022-10-22T03:54:39.795Z,100.00
2022-10-22T03:57:07.411Z,100.00
2022-10-22T03:59:40.150Z,100.00
2022-10-22T04:02:07.998Z,100.00
2022-10-22T04:04:36.313Z,100.00
2022-10-22T04:07:04.524Z,100.00
2022-10-22T04:09:33.447Z,100.00
2022-10-22T04:12:01.520Z,100.00
2022-10-22T04:14:29.859Z,100.00
2022-10-22T04:16:57.442Z,100.00
2022-10-22T04:19:24.929Z,100.00
2022-10-22T04:21:52.410Z,100.00
2022-10-22T04:24:20.010Z,100.00
2022-10-22T04:26:47.494Z,100.00
2022-10-22T04:29:16.291Z,100.00
2022-10-22T04:31:44.014Z,100.00
2022-10-22T04:34:11.497Z,100.00
2022-10-22T04:36:38.978Z,100.00
2022-10-22T04:39:06.582Z,100.00
2022-10-22T04:41:36.247Z,100.00
2022-10-22T04:44:04.544Z,100.00
2022-10-22T04:46:34.674Z,100.00
2022-10-22T04:49:04.187Z,100.00
2022-10-22T04:51:32.262Z,100.00
2022-10-22T04:53:59.636Z,100.00
2022-10-22T04:56:29.507Z,100.00
2022-10-22T04:59:02.635Z,100.00
2022-10-22T05:01:41.704Z,100.00
2022-10-22T05:04:16.203Z,100.00
2022-10-22T05:06:44.074Z,100.00
2022-10-22T05:09:17.826Z,100.00
2022-10-22T05:11:48.734Z,100.00
2022-10-22T05:14:19.096Z,100.00
2022-10-22T05:16:48.673Z,100.00
2022-10-22T05:19:26.886Z,100.00
2022-10-22T05:21:57.124Z,100.00
2022-10-22T05:24:25.705Z,100.00
2022-10-22T05:26:54.851Z,100.00
2022-10-22T05:29:22.461Z,100.00
2022-10-22T05:31:50.409Z,100.00
2022-10-22T05:34:17.895Z,100.00
2022-10-22T05:36:45.612Z,100.00
2022-10-22T05:39:13.096Z,100.00
2022-10-22T05:41:40.698Z,100.00
2022-10-22T05:44:08.176Z,100.00
2022-10-22T05:46:36.628Z,100.00
2022-10-22T05:49:06.516Z,100.00
2022-10-22T05:51:35.901Z,100.00
2022-10-22T05:54:06.027Z,100.00
2022-10-22T05:56:33.987Z,100.00
2022-10-22T06:01:37.718Z,100.00
2022-10-22T06:04:08.074Z,100.00
2022-10-22T06:06:38.450Z,100.00
2022-10-22T06:09:30.097Z,100.00
2022-10-22T06:11:58.001Z,100.00
2022-10-22T06:14:26.081Z,100.00
2022-10-22T06:16:53.916Z,100.00
2022-10-22T06:19:23.090Z,100.00
2022-10-22T06:21:50.698Z,100.00
2022-10-22T06:24:18.886Z,100.00
2022-10-22T06:26:50.090Z,100.00
2022-10-22T06:29:17.807Z,100.00
2022-10-22T06:31:45.408Z,100.00
2022-10-22T06:34:13.859Z,100.00
2022-10-22T06:36:42.954Z,100.00
2022-10-22T06:39:15.194Z,100.00
2022-10-22T06:41:45.667Z,100.00
2022-10-22T06:44:15.174Z,100.00
2022-10-22T06:46:43.625Z,100.00
2022-10-22T06:49:15.424Z,100.00
2022-10-22T06:51:43.025Z,100.00
2022-10-22T06:54:10.879Z,100.00
2022-10-22T06:56:41.586Z,100.00
2022-10-22T06:59:09.076Z,100.00
2022-10-22T07:01:37.395Z,100.00
2022-10-22T07:04:05.948Z,100.00
2022-10-22T07:06:33.671Z,100.00
2022-10-22T07:09:01.480Z,100.00
2022-10-22T07:11:30.799Z,100.00
2022-10-22T07:14:00.103Z,100.00
2022-10-22T07:16:31.315Z,100.00
2022-10-22T07:19:04.047Z,100.00
2022-10-22T07:21:31.411Z,100.00
2022-10-22T07:23:59.603Z,100.00
2022-10-22T07:26:30.943Z,100.00
2022-10-22T07:29:02.021Z,100.00
2022-10-22T07:31:29.619Z,100.00
2022-10-22T07:33:57.947Z,100.00
2022-10-22T07:36:26.249Z,100.00
2022-10-22T07:38:58.787Z,100.00
2022-10-22T07:41:28.060Z,100.00
2022-10-22T07:43:56.373Z,100.00
2022-10-22T07:46:25.293Z,100.00
2022-10-22T07:48:52.911Z,100.00
2022-10-22T07:51:20.383Z,100.00
2022-10-22T07:53:47.863Z,100.00
2022-10-22T07:56:15.746Z,100.00
2022-10-22T07:58:43.433Z,100.00
2022-10-22T08:01:11.215Z,100.00
2022-10-22T08:03:38.985Z,100.00
2022-10-22T08:06:06.827Z,100.00
2022-10-22T08:08:34.955Z,100.00
2022-10-22T08:11:02.772Z,100.00
2022-10-22T08:13:30.835Z,100.00
2022-10-22T08:16:04.829Z,100.00
2022-10-22T08:18:37.573Z,100.00
2022-10-22T08:21:05.521Z,100.00
2022-10-22T08:23:32.996Z,100.00
2022-10-22T08:26:00.481Z,100.00
2022-10-22T08:28:29.767Z,100.00
2022-10-22T08:30:57.482Z,100.00
2022-10-22T08:33:25.113Z,100.00
2022-10-22T08:35:52.924Z,100.00
2022-10-22T08:38:21.129Z,100.00
2022-10-22T08:40:52.331Z,100.00
2022-10-22T08:43:58.366Z,100.00
2022-10-22T08:46:28.586Z,100.00
2022-10-22T08:49:01.028Z,100.00
2022-10-22T08:51:32.545Z,100.00
2022-10-22T08:54:19.121Z,100.00
2022-10-22T08:57:03.029Z,100.00
2022-10-22T08:59:57.689Z,100.00
2022-10-22T09:02:25.770Z,100.00
2022-10-22T09:05:02.869Z,100.00
2022-10-22T09:07:30.512Z,100.00
2022-10-22T09:10:00.038Z,100.00
2022-10-22T09:12:27.879Z,100.00
2022-10-22T09:14:55.468Z,100.00
2022-10-22T09:17:39.568Z,100.00
2022-10-22T09:20:17.315Z,100.00
2022-10-22T09:23:11.927Z,100.00
2022-10-22T09:25:39.759Z,100.00
2022-10-22T09:28:09.638Z,100.00
2022-10-22T09:30:38.810Z,100.00
2022-10-22T09:33:06.286Z,100.00
2022-10-22T09:35:36.523Z,100.00
2022-10-22T09:38:08.561Z,100.00
2022-10-22T09:40:51.936Z,100.00
2022-10-22T09:43:19.746Z,100.00
2022-10-22T09:45:48.170Z,100.00
2022-10-22T09:48:15.414Z,100.00
2022-10-22T09:50:48.798Z,100.00
2022-10-22T09:53:36.925Z,100.00
2022-10-22T09:56:10.817Z,100.00
2022-10-22T09:58:49.390Z,100.00
2022-10-22T10:01:28.511Z,100.00
2022-10-22T10:06:55.985Z,100.00
2022-10-22T10:09:26.345Z,100.00
2022-10-22T10:12:01.044Z,100.00
2022-10-22T10:14:28.267Z,100.00
2022-10-22T10:17:11.952Z,100.00
2022-10-22T10:20:07.633Z,100.00
2022-10-22T10:22:48.686Z,100.00
2022-10-22T10:25:37.997Z,100.00
2022-10-22T10:28:15.801Z,100.00
2022-10-22T10:30:57.564Z,100.00
2022-10-22T10:33:44.000Z,100.00
2022-10-22T10:36:19.882Z,100.00
2022-10-22T10:39:08.023Z,100.00
2022-10-22T10:41:51.939Z,100.00
2022-10-22T10:44:26.974Z,100.00
2022-10-22T10:47:09.693Z,100.00
2022-10-22T10:49:37.409Z,100.00
2022-10-22T10:52:10.892Z,100.00
2022-10-22T10:54:55.433Z,100.00
2022-10-22T10:57:38.546Z,100.00
2022-10-22T11:00:10.726Z,100.00
2022-10-22T11:03:14.618Z,100.00
2022-10-22T11:06:03.857Z,100.00
2022-10-22T11:08:38.542Z,100.00
2022-10-22T11:11:18.466Z,100.00
2022-10-22T11:13:52.192Z,100.00
2022-10-22T11:16:36.736Z,100.00
2022-10-22T11:19:22.872Z,100.00
2022-10-22T11:22:14.633Z,100.00
2022-10-22T11:24:58.197Z,100.00
2022-10-22T11:28:07.907Z,100.00
2022-10-22T11:30:41.152Z,100.00
2022-10-22T11:33:15.509Z,100.00
2022-10-22T11:35:45.512Z,100.00
2022-10-22T11:38:18.224Z,100.00
2022-10-22T11:40:55.112Z,100.00
2022-10-22T11:43:54.025Z,100.00
2022-10-22T11:46:21.969Z,100.00
2022-10-22T11:49:13.931Z,96.47
2022-10-22T11:51:43.933Z,94.46
2022-10-22T11:54:42.391Z,92.43
2022-10-22T11:57:38.169Z,91.85
2022-10-22T12:00:11.919Z,89.44
2022-10-22T12:02:46.104Z,87.78
2022-10-22T12:05:25.216Z,84.62
2022-10-22T12:08:16.592Z,82.92
2022-10-22T12:11:00.262Z,80.99
2022-10-22T12:13:51.386Z,75.83
2022-10-22T12:16:27.301Z,74.32
2022-10-22T12:19:39.153Z,76.43
2022-10-22T12:22:10.233Z,72.04
2022-10-22T12:24:44.795Z,68.63
2022-10-22T12:27:25.859Z,71.19
2022-10-22T12:29:59.798Z,67.37
2022-10-22T12:32:38.915Z,59.58
2022-10-22T12:35:09.038Z,57.81
2022-10-22T12:37:37.793Z,58.92
2022-10-22T12:40:22.502Z,56.23
2022-10-22T12:42:52.722Z,56.47
2022-10-22T12:45:22.121Z,54.91
2022-10-22T12:47:53.080Z,54.49
2022-10-22T12:50:46.527Z,54.51
2022-10-22T12:53:16.717Z,56.50
2022-10-22T12:55:49.614Z,56.36
2022-10-22T12:58:26.169Z,56.11
2022-10-22T13:01:00.104Z,55.30
2022-10-22T13:03:32.942Z,52.24
2022-10-22T13:06:19.856Z,53.62
2022-10-22T13:09:00.721Z,53.13
2022-10-22T13:11:40.032Z,53.07
2022-10-22T13:14:31.143Z,52.20
2022-10-22T13:17:15.548Z,52.11
2022-10-22T13:19:55.275Z,53.29
2022-10-22T13:22:26.823Z,51.53
2022-10-22T13:27:29.357Z,51.11
2022-10-22T13:29:57.428Z,50.45
2022-10-22T13:32:34.160Z,51.13
2022-10-22T13:35:02.829Z,50.70
2022-10-22T13:37:32.605Z,50.81
2022-10-22T13:40:00.218Z,53.31
2022-10-22T13:42:27.677Z,49.84
2022-10-22T13:44:55.048Z,51.20
2022-10-22T13:47:26.841Z,47.49
2022-10-22T13:49:58.627Z,50.70
2022-10-22T13:52:35.720Z,47.72
2022-10-22T13:55:14.276Z,49.40
2022-10-22T13:57:41.844Z,51.20
2022-10-22T14:00:13.532Z,52.13
2022-10-22T14:02:41.385Z,53.01
2022-10-22T14:05:09.689Z,55.92
2022-10-22T14:07:37.772Z,53.67
2022-10-22T14:10:17.380Z,53.53
2022-10-22T14:12:47.291Z,54.73
2022-10-22T14:15:18.343Z,55.63
2022-10-22T14:17:49.653Z,56.65
2022-10-22T14:20:21.219Z,57.31
2022-10-22T14:22:50.858Z,58.40
2022-10-22T14:25:23.991Z,59.01
2022-10-22T14:27:51.477Z,59.98
2022-10-22T14:30:21.121Z,59.35
2022-10-22T14:32:48.984Z,59.31
2022-10-22T14:35:20.386Z,59.26
2022-10-22T14:37:48.233Z,59.78
2022-10-22T14:40:18.012Z,61.13
2022-10-22T14:42:47.880Z,60.90
2022-10-22T14:45:24.230Z,61.40
2022-10-22T14:47:52.430Z,62.94
2022-10-22T14:50:20.517Z,63.83
2022-10-22T14:52:48.487Z,62.21
2022-10-22T14:55:17.161Z,63.46
2022-10-22T14:57:44.920Z,64.34
2022-10-22T15:00:17.889Z,64.34
2022-10-22T15:02:46.087Z,64.49
2022-10-22T15:05:15.610Z,64.72
2022-10-22T15:07:44.288Z,65.79
2022-10-22T15:10:12.139Z,64.79
2022-10-22T15:12:39.728Z,65.16
2022-10-22T15:15:08.294Z,65.71
2022-10-22T15:17:35.658Z,66.56
2022-10-22T15:20:05.556Z,66.81
2022-10-22T15:22:35.456Z,67.91
2022-10-22T15:25:06.613Z,67.19
2022-10-22T15:27:34.229Z,68.65
2022-10-22T15:32:30.151Z,68.73
2022-10-22T15:34:57.997Z,70.07
2022-10-22T15:37:25.583Z,69.45
2022-10-22T15:39:52.958Z,70.12
2022-10-22T15:42:20.430Z,69.99
2022-10-22T15:44:47.798Z,70.80
2022-10-22T15:47:15.517Z,71.46
2022-10-22T15:49:42.997Z,71.20
2022-10-22T15:52:10.479Z,71.47
2022-10-22T15:54:37.956Z,71.26
2022-10-22T15:57:08.826Z,71.64
2022-10-22T15:59:36.757Z,72.28
2022-10-22T16:02:04.625Z,72.77
2022-10-22T16:04:32.215Z,73.52
2022-10-22T16:06:59.934Z,73.52
2022-10-22T16:09:28.504Z,73.03
2022-10-22T16:11:56.493Z,73.39
2022-10-22T16:14:24.437Z,73.34
2022-10-22T16:16:54.300Z,73.62
2022-10-22T16:19:23.214Z,74.21
2022-10-22T16:21:52.386Z,74.30
2022-10-22T16:24:20.454Z,74.43
2022-10-22T16:26:48.676Z,74.81
2022-10-22T16:29:17.115Z,74.56
2022-10-22T16:31:45.556Z,74.64
2022-10-22T16:34:13.664Z,75.19
2022-10-22T16:36:41.295Z,75.71
2022-10-22T16:39:08.944Z,75.79
2022-10-22T16:41:36.569Z,75.27
2022-10-22T16:44:08.008Z,75.87
2022-10-22T16:46:38.681Z,76.06
2022-10-22T16:49:07.291Z,76.06
2022-10-22T16:51:35.479Z,75.95
2022-10-22T16:54:05.546Z,76.29
2022-10-22T16:56:36.830Z,76.83
2022-10-22T16:59:04.401Z,76.93
2022-10-22T17:01:33.231Z,77.45
2022-10-22T17:04:02.754Z,77.94
2022-10-22T17:06:30.316Z,77.90
2022-10-22T17:08:57.954Z,77.99
2022-10-22T17:11:25.531Z,78.46
2022-10-22T17:13:54.571Z,78.83
2022-10-22T17:16:24.207Z,78.61
2022-10-22T17:18:53.734Z,77.96
2022-10-22T17:21:22.050Z,78.19
2022-10-22T17:23:52.307Z,79.70
2022-10-22T17:26:22.325Z,80.29
2022-10-22T17:28:50.498Z,79.83
2022-10-22T17:31:21.464Z,80.68
2022-10-22T17:33:51.102Z,80.57
2022-10-22T17:36:19.780Z,80.47
2022-10-22T17:38:54.830Z,81.70
2022-10-22T17:41:29.028Z,82.48
2022-10-22T17:43:58.188Z,83.59
2022-10-22T17:46:27.469Z,82.57
2022-10-22T17:49:05.628Z,82.86
2022-10-22T17:51:33.498Z,83.15
2022-10-22T17:54:02.464Z,83.41
2022-10-22T17:56:31.963Z,84.07
2022-10-22T17:59:02.350Z,84.56
2022-10-22T18:01:32.816Z,84.33
2022-10-22T18:04:02.719Z,84.65
2022-10-22T18:06:30.511Z,85.69
2022-10-22T18:08:58.033Z,86.75
2022-10-22T18:11:26.484Z,86.66
2022-10-22T18:13:55.797Z,86.15
2022-10-22T18:16:23.042Z,88.61
2022-10-22T18:18:53.222Z,89.74
2022-10-22T18:21:21.266Z,88.52
2022-10-22T18:23:48.350Z,89.44
2022-10-22T18:26:16.037Z,88.61
2022-10-22T18:28:43.197Z,88.10
2022-10-22T18:31:13.361Z,88.53
2022-10-22T18:33:40.767Z,89.66
2022-10-22T18:36:10.549Z,88.79
2022-10-22T18:38:40.779Z,87.94
2022-10-22T18:41:13.484Z,87.88
2022-10-22T18:43:40.580Z,87.48
2022-10-22T18:46:07.912Z,87.32
2022-10-22T18:48:36.483Z,88.16
2022-10-22T18:51:08.299Z,87.62
2022-10-22T18:53:37.060Z,87.15
2022-10-22T18:56:05.395Z,86.88
2022-10-22T18:58:40.518Z,87.05
2022-10-22T19:01:09.319Z,86.63
2022-10-22T19:03:36.841Z,85.98
2022-10-22T19:06:04.336Z,86.08
2022-10-22T19:08:32.150Z,84.80
2022-10-22T19:10:59.279Z,84.45
2022-10-22T19:13:26.521Z,84.31
2022-10-22T19:15:53.647Z,84.41
2022-10-22T19:18:20.805Z,84.37
2022-10-22T19:20:48.931Z,85.01
2022-10-22T19:23:19.969Z,85.54
2022-10-22T19:25:47.987Z,85.28
2022-10-22T19:28:15.160Z,85.14
2022-10-22T19:30:44.677Z,84.56
2022-10-22T19:33:11.808Z,84.48
2022-10-22T19:35:38.936Z,84.37
2022-10-22T19:38:06.059Z,84.78
2022-10-22T19:40:33.163Z,84.68
2022-10-22T19:43:00.310Z,85.36
2022-10-22T19:45:27.391Z,85.55
2022-10-22T19:47:54.564Z,86.04
2022-10-22T19:50:21.645Z,85.44
2022-10-22T19:52:48.852Z,85.81
2022-10-22T19:55:16.032Z,85.56
2022-10-22T19:57:43.552Z,86.33
2022-10-22T20:00:11.512Z,87.81
2022-10-22T20:02:38.673Z,87.65
2022-10-22T20:05:06.175Z,87.79
2022-10-22T20:07:33.377Z,88.19
2022-10-22T20:10:00.555Z,89.15
2022-10-22T20:12:27.657Z,89.42
2022-10-22T20:14:54.838Z,89.52
2022-10-22T20:17:22.014Z,90.36
2022-10-22T20:19:49.132Z,90.81
2022-10-22T20:22:18.709Z,89.98
2022-10-22T20:24:46.131Z,90.15
2022-10-22T20:27:13.782Z,91.02
2022-10-22T20:29:42.022Z,91.65
2022-10-22T20:32:09.124Z,92.18
2022-10-22T20:34:37.110Z,92.72
2022-10-22T20:37:04.335Z,91.75
2022-10-22T20:39:31.557Z,91.42
2022-10-22T20:41:58.688Z,92.25
2022-10-22T20:44:25.782Z,92.69
2022-10-22T20:46:53.167Z,92.76
2022-10-22T20:49:21.072Z,93.06
2022-10-22T20:51:48.303Z,93.01
2022-10-22T20:54:15.588Z,93.40
2022-10-22T20:56:43.253Z,93.86
2022-10-22T20:59:12.633Z,94.76
2022-10-22T21:01:53.377Z,94.67
2022-10-22T21:04:21.776Z,94.96
2022-10-22T21:06:50.521Z,94.71
2022-10-22T21:09:17.933Z,95.51
2022-10-22T21:11:45.361Z,94.96
2022-10-22T21:14:14.307Z,95.91
2022-10-22T21:16:43.204Z,96.29
2022-10-22T21:19:10.510Z,96.45
2022-10-22T21:21:37.685Z,97.02
2022-10-22T21:24:04.867Z,96.52
2022-10-22T21:26:32.130Z,97.23
2022-10-22T21:28:59.207Z,97.21
2022-10-22T21:31:26.523Z,97.65
2022-10-22T21:33:53.773Z,98.55
2022-10-22T21:36:23.246Z,98.85
2022-10-22T21:38:51.905Z,98.48
2022-10-22T21:41:21.031Z,99.24
2022-10-22T21:43:48.758Z,98.86
2022-10-22T21:46:18.662Z,98.37
2022-10-22T21:48:45.842Z,97.98
2022-10-22T21:51:15.898Z,97.71
2022-10-22T21:53:43.360Z,98.65
2022-10-22T21:56:15.503Z,98.54
2022-10-22T21:58:42.715Z,98.89
2022-10-22T22:01:10.131Z,98.67
2022-10-22T22:03:37.330Z,99.02
2022-10-22T22:06:06.140Z,98.65
2022-10-22T22:08:34.064Z,99.40
2022-10-22T22:11:06.505Z,99.91
2022-10-22T22:13:33.732Z,100.00
2022-10-22T22:16:05.603Z,100.00
2022-10-22T22:18:33.553Z,100.00
2022-10-22T22:21:05.327Z,100.00
2022-10-22T22:23:33.134Z,100.00
2022-10-22T22:26:01.326Z,100.00
2022-10-22T22:28:29.792Z,100.00
2022-10-22T22:30:57.319Z,100.00
2022-10-22T22:33:24.412Z,100.00
2022-10-22T22:35:51.612Z,100.00
2022-10-22T22:38:18.844Z,100.00
2022-10-22T22:40:45.975Z,100.00
2022-10-22T22:43:13.046Z,100.00
2022-10-22T22:45:40.845Z,100.00
2022-10-22T22:48:08.079Z,100.00
2022-10-22T22:50:36.714Z,100.00
2022-10-22T22:53:03.823Z,100.00
2022-10-22T22:55:31.961Z,100.00
2022-10-22T22:57:59.074Z,100.00
2022-10-22T23:00:26.378Z,100.00
2022-10-22T23:02:56.547Z,100.00
2022-10-22T23:05:23.758Z,100.00
2022-10-22T23:07:51.041Z,100.00
2022-10-22T23:10:18.231Z,100.00
2022-10-22T23:12:45.311Z,100.00
2022-10-22T23:15:12.432Z,100.00
2022-10-22T23:17:39.610Z,100.00
2022-10-22T23:20:07.536Z,100.00
2022-10-22T23:22:34.629Z,100.00
2022-10-22T23:25:01.948Z,100.00
2022-10-22T23:27:29.076Z,100.00
2022-10-22T23:29:56.204Z,100.00
2022-10-22T23:32:23.328Z,100.00
2022-10-22T23:34:50.451Z,100.00
2022-10-22T23:37:17.600Z,100.00
2022-10-22T23:39:44.675Z,100.00
2022-10-22T23:42:11.808Z,100.00
2022-10-22T23:44:41.548Z,100.00
2022-10-22T23:47:08.666Z,100.00
2022-10-22T23:49:35.791Z,100.00
2022-10-22T23:52:02.971Z,100.00
2022-10-22T23:54:30.010Z,100.00
2022-10-22T23:56:57.121Z,100.00
2022-10-22T23:59:24.268Z,100.00
